sensor_id;sensor_type;location;lat;lon;timestamp;temperature;humidity
18648;DHT22;9453;50.294;18.644;2023-01-29T05:03:13;-0.20;92.80
18648;DHT22;9453;50.294;18.644;2023-01-29T05:05:42;-0.20;92.80
18648;DHT22;9453;50.294;18.644;2023-01-29T05:08:12;-0.30;92.10
18648;DHT22;9453;50.294;18.644;2023-01-29T05:10:41;-0.40;92.10
18648;DHT22;9453;50.294;18.644;2023-01-29T05:13:11;-0.50;92.60
18648;DHT22;9453;50.294;18.644;2023-01-29T05:15:40;-0.60;92.80
18648;DHT22;9453;50.294;18.644;2023-01-29T05:18:11;-0.60;93.00
18648;DHT22;9453;50.294;18.644;2023-01-29T05:20:40;-0.50;93.20
18648;DHT22;9453;50.294;18.644;2023-01-29T05:23:09;-0.50;93.30
18648;DHT22;9453;50.294;18.644;2023-01-29T05:25:37;-0.40;93.30
18648;DHT22;9453;50.294;18.644;2023-01-29T05:28:04;-0.20;93.40
18648;DHT22;9453;50.294;18.644;2023-01-29T05:30:34;-0.20;93.30
18648;DHT22;9453;50.294;18.644;2023-01-29T05:33:02;-0.20;93.10
18648;DHT22;9453;50.294;18.644;2023-01-29T05:35:31;-0.30;92.80
18648;DHT22;9453;50.294;18.644;2023-01-29T05:37:59;-0.20;93.00
18648;DHT22;9453;50.294;18.644;2023-01-29T05:40:26;-0.20;93.10
18648;DHT22;9453;50.294;18.644;2023-01-29T05:42:53;-0.30;92.90
18648;DHT22;9453;50.294;18.644;2023-01-29T05:45:20;-0.30;93.00
18648;DHT22;9453;50.294;18.644;2023-01-29T05:47:47;-0.30;92.90
18648;DHT22;9453;50.294;18.644;2023-01-29T05:50:18;-0.10;93.40
18648;DHT22;9453;50.294;18.644;2023-01-29T05:52:47;-0.30;93.00
18648;DHT22;9453;50.294;18.644;2023-01-29T05:55:14;-0.50;93.70
18648;DHT22;9453;50.294;18.644;2023-01-29T05:57:43;-0.50;94.00
18648;DHT22;9453;50.294;18.644;2023-01-29T06:00:11;-0.50;94.70
18648;DHT22;9453;50.294;18.644;2023-01-29T06:02:39;-0.50;95.10
18648;DHT22;9453;50.294;18.644;2023-01-29T06:05:06;-0.50;95.60
18648;DHT22;9453;50.294;18.644;2023-01-29T06:07:34;-0.50;95.80
18648;DHT22;9453;50.294;18.644;2023-01-29T06:10:02;-0.50;96.10
18648;DHT22;9453;50.294;18.644;2023-01-29T06:12:29;-0.60;96.40
18648;DHT22;9453;50.294;18.644;2023-01-29T06:14:56;-0.70;96.90
18648;DHT22;9453;50.294;18.644;2023-01-29T06:17:23;-0.60;97.30
18648;DHT22;9453;50.294;18.644;2023-01-29T06:19:50;-0.50;97.80
18648;DHT22;9453;50.294;18.644;2023-01-29T06:22:16;-0.50;97.50
18648;DHT22;9453;50.294;18.644;2023-01-29T06:24:43;-0.40;97.70
18648;DHT22;9453;50.294;18.644;2023-01-29T06:27:12;-0.50;97.60
18648;DHT22;9453;50.294;18.644;2023-01-29T06:29:39;-0.50;97.70
18648;DHT22;9453;50.294;18.644;2023-01-29T06:32:05;-0.50;97.90
18648;DHT22;9453;50.294;18.644;2023-01-29T06:34:32;-0.40;98.00
18648;DHT22;9453;50.294;18.644;2023-01-29T06:36:59;-0.60;98.30
18648;DHT22;9453;50.294;18.644;2023-01-29T06:39:26;-0.60;98.60
18648;DHT22;9453;50.294;18.644;2023-01-29T06:41:53;-0.70;98.80
18648;DHT22;9453;50.294;18.644;2023-01-29T06:44:21;-0.70;99.20
18648;DHT22;9453;50.294;18.644;2023-01-29T06:46:49;-0.70;99.70
18648;DHT22;9453;50.294;18.644;2023-01-29T06:49:16;-0.80;99.80
18648;DHT22;9453;50.294;18.644;2023-01-29T06:51:42;-0.80;99.90
18648;DHT22;9453;50.294;18.644;2023-01-29T06:54:10;-0.70;99.90
18648;DHT22;9453;50.294;18.644;2023-01-29T06:56:36;-0.80;99.90
18648;DHT22;9453;50.294;18.644;2023-01-29T06:59:04;-0.60;99.90
18648;DHT22;9453;50.294;18.644;2023-01-29T07:01:32;-0.50;99.90
18648;DHT22;9453;50.294;18.644;2023-01-29T07:03:59;-0.40;99.90
18648;DHT22;9453;50.294;18.644;2023-01-29T07:06:27;-0.50;99.90
18648;DHT22;9453;50.294;18.644;2023-01-29T07:08:57;-0.50;99.90
18648;DHT22;9453;50.294;18.644;2023-01-29T07:11:24;-0.40;99.90
18648;DHT22;9453;50.294;18.644;2023-01-29T07:13:51;-0.50;99.90
18648;DHT22;9453;50.294;18.644;2023-01-29T07:16:18;-0.50;99.90
18648;DHT22;9453;50.294;18.644;2023-01-29T07:18:49;-0.40;99.90
18648;DHT22;9453;50.294;18.644;2023-01-29T07:21:16;-0.50;99.90
18648;DHT22;9453;50.294;18.644;2023-01-29T07:23:43;-0.50;99.90
18648;DHT22;9453;50.294;18.644;2023-01-29T07:26:11;-0.50;99.90
18648;DHT22;9453;50.294;18.644;2023-01-29T07:28:39;-0.40;99.90
18648;DHT22;9453;50.294;18.644;2023-01-29T07:31:07;-0.30;99.90
18648;DHT22;9453;50.294;18.644;2023-01-29T07:33:35;-0.30;99.90
18648;DHT22;9453;50.294;18.644;2023-01-29T07:36:06;-0.30;99.90
18648;DHT22;9453;50.294;18.644;2023-01-29T07:38:37;-0.30;99.90
18648;DHT22;9453;50.294;18.644;2023-01-29T07:41:04;-0.30;99.90
18648;DHT22;9453;50.294;18.644;2023-01-29T07:43:31;-0.20;99.90
18648;DHT22;9453;50.294;18.644;2023-01-29T07:46:01;-0.20;99.60
18648;DHT22;9453;50.294;18.644;2023-01-29T07:48:28;-0.20;99.50
18648;DHT22;9453;50.294;18.644;2023-01-29T07:50:58;-0.20;99.20
18648;DHT22;9453;50.294;18.644;2023-01-29T07:53:27;-0.10;99.70
18648;DHT22;9453;50.294;18.644;2023-01-29T07:55:54;0.10;99.90
18648;DHT22;9453;50.294;18.644;2023-01-29T07:58:21;0.20;99.60
18648;DHT22;9453;50.294;18.644;2023-01-29T08:00:48;0.30;99.30
18648;DHT22;9453;50.294;18.644;2023-01-29T08:03:17;0.30;98.70
18648;DHT22;9453;50.294;18.644;2023-01-29T08:05:44;0.20;97.70
18648;DHT22;9453;50.294;18.644;2023-01-29T08:08:12;0.20;98.30
18648;DHT22;9453;50.294;18.644;2023-01-29T08:10:41;0.30;97.40
18648;DHT22;9453;50.294;18.644;2023-01-29T08:13:08;0.40;97.50
18648;DHT22;9453;50.294;18.644;2023-01-29T08:15:35;0.30;95.90
18648;DHT22;9453;50.294;18.644;2023-01-29T08:18:02;0.30;95.90
18648;DHT22;9453;50.294;18.644;2023-01-29T08:20:29;0.30;96.30
18648;DHT22;9453;50.294;18.644;2023-01-29T08:22:59;0.10;95.80
18648;DHT22;9453;50.294;18.644;2023-01-29T08:25:27;0.20;96.50
18648;DHT22;9453;50.294;18.644;2023-01-29T08:27:57;-0.10;95.70
18648;DHT22;9453;50.294;18.644;2023-01-29T08:30:25;-0.10;96.50
18648;DHT22;9453;50.294;18.644;2023-01-29T08:32:52;-0.20;96.30
18648;DHT22;9453;50.294;18.644;2023-01-29T08:35:19;0.00;96.40
18648;DHT22;9453;50.294;18.644;2023-01-29T08:37:52;0.00;95.80
18648;DHT22;9453;50.294;18.644;2023-01-29T08:40:20;0.00;95.60
18648;DHT22;9453;50.294;18.644;2023-01-29T08:42:47;-0.10;95.10
18648;DHT22;9453;50.294;18.644;2023-01-29T08:45:16;0.10;95.40
18648;DHT22;9453;50.294;18.644;2023-01-29T08:47:46;0.10;94.60
18648;DHT22;9453;50.294;18.644;2023-01-29T08:50:14;-0.20;95.40
18648;DHT22;9453;50.294;18.644;2023-01-29T08:52:41;-0.10;95.70
18648;DHT22;9453;50.294;18.644;2023-01-29T08:55:10;-0.10;94.60
18648;DHT22;9453;50.294;18.644;2023-01-29T08:57:37;0.10;94.90
18648;DHT22;9453;50.294;18.644;2023-01-29T09:00:06;0.20;94.30
18648;DHT22;9453;50.294;18.644;2023-01-29T09:02:36;0.30;93.90
18648;DHT22;9453;50.294;18.644;2023-01-29T09:05:03;0.50;93.90
18648;DHT22;9453;50.294;18.644;2023-01-29T09:07:30;0.50;92.90
18648;DHT22;9453;50.294;18.644;2023-01-29T09:09:57;0.60;92.80
18648;DHT22;9453;50.294;18.644;2023-01-29T09:12:24;0.60;92.10
18648;DHT22;9453;50.294;18.644;2023-01-29T09:14:51;0.80;91.90
18648;DHT22;9453;50.294;18.644;2023-01-29T09:17:18;0.60;91.80
18648;DHT22;9453;50.294;18.644;2023-01-29T09:19:47;0.80;92.60
18648;DHT22;9453;50.294;18.644;2023-01-29T09:22:14;0.60;90.70
18648;DHT22;9453;50.294;18.644;2023-01-29T09:24:41;0.70;90.90
18648;DHT22;9453;50.294;18.644;2023-01-29T09:27:08;0.60;90.00
18648;DHT22;9453;50.294;18.644;2023-01-29T09:29:37;0.60;90.10
18648;DHT22;9453;50.294;18.644;2023-01-29T09:32:05;0.70;90.20
18648;DHT22;9453;50.294;18.644;2023-01-29T09:34:32;0.60;85.10
18648;DHT22;9453;50.294;18.644;2023-01-29T09:37:00;0.40;84.80
18648;DHT22;9453;50.294;18.644;2023-01-29T09:39:27;0.60;86.10
18648;DHT22;9453;50.294;18.644;2023-01-29T09:42:01;0.60;86.40
18648;DHT22;9453;50.294;18.644;2023-01-29T09:44:42;0.50;85.80
18648;DHT22;9453;50.294;18.644;2023-01-29T09:47:16;0.30;86.60
18648;DHT22;9453;50.294;18.644;2023-01-29T09:49:46;0.40;87.40
18648;DHT22;9453;50.294;18.644;2023-01-29T09:52:20;0.40;87.40
18648;DHT22;9453;50.294;18.644;2023-01-29T09:54:53;0.10;88.30
18648;DHT22;9453;50.294;18.644;2023-01-29T09:57:26;-0.10;89.60
18648;DHT22;9453;50.294;18.644;2023-01-29T09:59:54;-0.20;90.30
18648;DHT22;9453;50.294;18.644;2023-01-29T10:02:51;-0.10;90.30
18648;DHT22;9453;50.294;18.644;2023-01-29T10:05:33;0.00;90.40
18648;DHT22;9453;50.294;18.644;2023-01-29T10:08:18;0.30;89.80
18648;DHT22;9453;50.294;18.644;2023-01-29T10:10:49;0.50;87.60
18648;DHT22;9453;50.294;18.644;2023-01-29T10:13:28;0.70;87.00
18648;DHT22;9453;50.294;18.644;2023-01-29T10:16:17;0.90;85.50
18648;DHT22;9453;50.294;18.644;2023-01-29T10:19:06;1.00;84.00
18648;DHT22;9453;50.294;18.644;2023-01-29T10:24:36;0.60;82.50
18648;DHT22;9453;50.294;18.644;2023-01-29T10:27:12;0.50;79.40
18648;DHT22;9453;50.294;18.644;2023-01-29T10:29:41;0.30;81.70
18648;DHT22;9453;50.294;18.644;2023-01-29T10:32:14;0.50;82.90
18648;DHT22;9453;50.294;18.644;2023-01-29T10:34:45;0.80;82.80
18648;DHT22;9453;50.294;18.644;2023-01-29T10:37:17;1.10;82.10
18648;DHT22;9453;50.294;18.644;2023-01-29T10:39:47;1.30;81.60
18648;DHT22;9453;50.294;18.644;2023-01-29T10:42:21;1.60;80.10
18648;DHT22;9453;50.294;18.644;2023-01-29T10:45:08;1.60;78.90
18648;DHT22;9453;50.294;18.644;2023-01-29T10:48:25;1.90;77.80
18648;DHT22;9453;50.294;18.644;2023-01-29T10:51:02;1.90;75.60
18648;DHT22;9453;50.294;18.644;2023-01-29T10:53:39;2.00;76.10
18648;DHT22;9453;50.294;18.644;2023-01-29T10:56:30;2.10;76.30
18648;DHT22;9453;50.294;18.644;2023-01-29T10:59:03;2.20;75.80
18648;DHT22;9453;50.294;18.644;2023-01-29T11:01:34;2.30;75.70
18648;DHT22;9453;50.294;18.644;2023-01-29T11:04:03;2.30;75.40
18648;DHT22;9453;50.294;18.644;2023-01-29T11:06:35;2.30;75.20
18648;DHT22;9453;50.294;18.644;2023-01-29T11:09:06;2.30;74.40
18648;DHT22;9453;50.294;18.644;2023-01-29T11:11:40;2.30;74.10
18648;DHT22;9453;50.294;18.644;2023-01-29T11:14:12;2.30;72.60
18648;DHT22;9453;50.294;18.644;2023-01-29T11:16:41;2.20;72.50
18648;DHT22;9453;50.294;18.644;2023-01-29T11:19:09;2.10;72.50
18648;DHT22;9453;50.294;18.644;2023-01-29T11:21:50;2.20;73.60
18648;DHT22;9453;50.294;18.644;2023-01-29T11:24:18;2.20;73.30
18648;DHT22;9453;50.294;18.644;2023-01-29T11:26:48;2.20;73.40
18648;DHT22;9453;50.294;18.644;2023-01-29T11:29:36;2.20;73.50
18648;DHT22;9453;50.294;18.644;2023-01-29T11:32:05;2.20;72.80
18648;DHT22;9453;50.294;18.644;2023-01-29T11:34:33;2.30;73.10
18648;DHT22;9453;50.294;18.644;2023-01-29T11:37:01;2.30;72.60
18648;DHT22;9453;50.294;18.644;2023-01-29T11:39:32;2.40;72.70
18648;DHT22;9453;50.294;18.644;2023-01-29T11:42:02;2.40;72.80
18648;DHT22;9453;50.294;18.644;2023-01-29T11:44:31;2.30;72.50
18648;DHT22;9453;50.294;18.644;2023-01-29T11:47:11;2.30;71.80
18648;DHT22;9453;50.294;18.644;2023-01-29T11:49:44;2.40;71.60
18648;DHT22;9453;50.294;18.644;2023-01-29T11:52:13;2.50;71.80
18648;DHT22;9453;50.294;18.644;2023-01-29T11:54:45;2.60;71.90
18648;DHT22;9453;50.294;18.644;2023-01-29T11:57:30;2.70;71.60
18648;DHT22;9453;50.294;18.644;2023-01-29T12:00:02;2.70;70.80
18648;DHT22;9453;50.294;18.644;2023-01-29T12:02:34;2.70;71.50
18648;DHT22;9453;50.294;18.644;2023-01-29T12:05:05;2.40;70.90
18648;DHT22;9453;50.294;18.644;2023-01-29T12:07:33;2.40;72.50
18648;DHT22;9453;50.294;18.644;2023-01-29T12:10:00;2.20;72.60
18648;DHT22;9453;50.294;18.644;2023-01-29T12:12:36;2.20;74.20
18648;DHT22;9453;50.294;18.644;2023-01-29T12:15:14;2.30;74.10
18648;DHT22;9453;50.294;18.644;2023-01-29T12:17:44;2.40;72.80
18648;DHT22;9453;50.294;18.644;2023-01-29T12:20:16;2.50;72.60
18648;DHT22;9453;50.294;18.644;2023-01-29T12:22:46;2.60;71.90
18648;DHT22;9453;50.294;18.644;2023-01-29T12:25:20;2.50;71.80
18648;DHT22;9453;50.294;18.644;2023-01-29T12:27:54;2.60;72.90
18648;DHT22;9453;50.294;18.644;2023-01-29T12:30:26;2.50;72.10
18648;DHT22;9453;50.294;18.644;2023-01-29T12:32:58;2.50;72.50
18648;DHT22;9453;50.294;18.644;2023-01-29T12:35:30;2.40;72.70
18648;DHT22;9453;50.294;18.644;2023-01-29T12:38:01;2.30;73.30
18648;DHT22;9453;50.294;18.644;2023-01-29T12:40:31;2.30;74.60
18648;DHT22;9453;50.294;18.644;2023-01-29T12:43:06;2.40;75.10
18648;DHT22;9453;50.294;18.644;2023-01-29T12:45:36;2.50;75.30
18648;DHT22;9453;50.294;18.644;2023-01-29T12:48:07;2.50;75.50
18648;DHT22;9453;50.294;18.644;2023-01-29T12:50:36;2.70;75.50
18648;DHT22;9453;50.294;18.644;2023-01-29T12:53:10;2.60;74.40
18648;DHT22;9453;50.294;18.644;2023-01-29T12:55:41;2.60;74.60
18648;DHT22;9453;50.294;18.644;2023-01-29T12:58:14;2.60;74.60
18648;DHT22;9453;50.294;18.644;2023-01-29T13:00:43;2.60;74.60
18648;DHT22;9453;50.294;18.644;2023-01-29T13:03:18;2.40;74.30
18648;DHT22;9453;50.294;18.644;2023-01-29T13:05:49;2.50;74.90
18648;DHT22;9453;50.294;18.644;2023-01-29T13:08:37;2.60;75.00
18648;DHT22;9453;50.294;18.644;2023-01-29T13:11:19;2.60;74.30
18648;DHT22;9453;50.294;18.644;2023-01-29T13:13:52;2.70;74.10
18648;DHT22;9453;50.294;18.644;2023-01-29T13:16:25;2.70;74.10
18648;DHT22;9453;50.294;18.644;2023-01-29T13:18:55;2.60;73.00
18648;DHT22;9453;50.294;18.644;2023-01-29T13:21:26;2.50;72.90
18648;DHT22;9453;50.294;18.644;2023-01-29T13:23:56;2.50;74.30
18648;DHT22;9453;50.294;18.644;2023-01-29T13:26:26;2.50;73.80
18648;DHT22;9453;50.294;18.644;2023-01-29T13:28:54;2.50;74.10
18648;DHT22;9453;50.294;18.644;2023-01-29T13:31:28;2.60;73.80
18648;DHT22;9453;50.294;18.644;2023-01-29T13:34:03;2.70;73.90
18648;DHT22;9453;50.294;18.644;2023-01-29T13:36:33;2.70;73.80
18648;DHT22;9453;50.294;18.644;2023-01-29T13:39:03;2.60;73.00
18648;DHT22;9453;50.294;18.644;2023-01-29T13:41:33;2.60;73.50
18648;DHT22;9453;50.294;18.644;2023-01-29T13:44:04;2.40;73.60
18648;DHT22;9453;50.294;18.644;2023-01-29T13:46:39;2.40;73.50
18648;DHT22;9453;50.294;18.644;2023-01-29T13:49:26;2.30;74.20
18648;DHT22;9453;50.294;18.644;2023-01-29T13:51:56;2.20;74.30
18648;DHT22;9453;50.294;18.644;2023-01-29T13:54:25;2.30;75.10
18648;DHT22;9453;50.294;18.644;2023-01-29T13:56:58;2.20;74.20
18648;DHT22;9453;50.294;18.644;2023-01-29T13:59:52;2.10;73.90
18648;DHT22;9453;50.294;18.644;2023-01-29T14:02:25;2.20;74.50
18648;DHT22;9453;50.294;18.644;2023-01-29T14:05:35;2.20;74.40
18648;DHT22;9453;50.294;18.644;2023-01-29T14:08:05;2.20;74.70
18648;DHT22;9453;50.294;18.644;2023-01-29T14:10:33;2.10;74.50
18648;DHT22;9453;50.294;18.644;2023-01-29T14:13:26;2.20;74.70
18648;DHT22;9453;50.294;18.644;2023-01-29T14:19:17;2.10;74.50
18648;DHT22;9453;50.294;18.644;2023-01-29T14:21:48;2.20;74.50
18648;DHT22;9453;50.294;18.644;2023-01-29T14:24:18;2.20;74.40
18648;DHT22;9453;50.294;18.644;2023-01-29T14:26:49;2.10;74.50
18648;DHT22;9453;50.294;18.644;2023-01-29T14:29:24;2.10;75.20
18648;DHT22;9453;50.294;18.644;2023-01-29T14:31:53;2.20;76.10
18648;DHT22;9453;50.294;18.644;2023-01-29T14:34:25;2.20;75.30
18648;DHT22;9453;50.294;18.644;2023-01-29T14:37:32;2.20;75.10
18648;DHT22;9453;50.294;18.644;2023-01-29T14:40:17;2.20;74.80
18648;DHT22;9453;50.294;18.644;2023-01-29T14:42:54;2.20;75.60
18648;DHT22;9453;50.294;18.644;2023-01-29T14:45:24;2.10;75.00
18648;DHT22;9453;50.294;18.644;2023-01-29T14:48:00;2.00;75.30
18648;DHT22;9453;50.294;18.644;2023-01-29T14:50:54;2.00;75.60
18648;DHT22;9453;50.294;18.644;2023-01-29T14:53:44;2.00;76.00
18648;DHT22;9453;50.294;18.644;2023-01-29T14:56:14;1.90;76.00
18648;DHT22;9453;50.294;18.644;2023-01-29T14:58:45;1.80;76.40
18648;DHT22;9453;50.294;18.644;2023-01-29T15:01:22;1.70;76.60
18648;DHT22;9453;50.294;18.644;2023-01-29T15:03:52;1.80;77.30
18648;DHT22;9453;50.294;18.644;2023-01-29T15:06:26;1.60;77.30
18648;DHT22;9453;50.294;18.644;2023-01-29T15:09:02;1.60;77.90
18648;DHT22;9453;50.294;18.644;2023-01-29T15:11:34;1.60;78.30
18648;DHT22;9453;50.294;18.644;2023-01-29T15:14:20;1.60;78.50
18648;DHT22;9453;50.294;18.644;2023-01-29T15:17:06;1.60;78.70
18648;DHT22;9453;50.294;18.644;2023-01-29T15:19:43;1.50;78.90
18648;DHT22;9453;50.294;18.644;2023-01-29T15:22:13;1.50;79.20
18648;DHT22;9453;50.294;18.644;2023-01-29T15:24:41;1.50;79.50
18648;DHT22;9453;50.294;18.644;2023-01-29T15:27:12;1.50;79.50
18648;DHT22;9453;50.294;18.644;2023-01-29T15:29:41;1.50;79.70
18648;DHT22;9453;50.294;18.644;2023-01-29T15:32:15;1.50;79.90
18648;DHT22;9453;50.294;18.644;2023-01-29T15:34:45;1.50;80.10
18648;DHT22;9453;50.294;18.644;2023-01-29T15:37:27;1.50;80.30
18648;DHT22;9453;50.294;18.644;2023-01-29T15:39:56;1.50;80.30
18648;DHT22;9453;50.294;18.644;2023-01-29T15:42:26;1.50;80.30
18648;DHT22;9453;50.294;18.644;2023-01-29T15:44:54;1.50;80.30
18648;DHT22;9453;50.294;18.644;2023-01-29T15:47:23;1.60;80.50
18648;DHT22;9453;50.294;18.644;2023-01-29T15:49:51;1.60;80.40
18648;DHT22;9453;50.294;18.644;2023-01-29T15:52:21;1.60;80.50
18648;DHT22;9453;50.294;18.644;2023-01-29T15:54:51;1.60;80.40
18648;DHT22;9453;50.294;18.644;2023-01-29T15:57:21;1.60;80.80
18648;DHT22;9453;50.294;18.644;2023-01-29T15:59:51;1.70;80.90
18648;DHT22;9453;50.294;18.644;2023-01-29T16:02:35;1.60;80.40
18648;DHT22;9453;50.294;18.644;2023-01-29T16:05:04;1.60;80.40
18648;DHT22;9453;50.294;18.644;2023-01-29T16:07:33;1.50;80.30
18648;DHT22;9453;50.294;18.644;2023-01-29T16:10:04;1.50;80.80
18648;DHT22;9453;50.294;18.644;2023-01-29T16:12:32;1.50;80.90
18648;DHT22;9453;50.294;18.644;2023-01-29T16:15:02;1.60;80.90
18648;DHT22;9453;50.294;18.644;2023-01-29T16:17:31;1.60;80.80
18648;DHT22;9453;50.294;18.644;2023-01-29T16:20:02;1.50;80.60
18648;DHT22;9453;50.294;18.644;2023-01-29T16:22:32;1.50;80.80
18648;DHT22;9453;50.294;18.644;2023-01-29T16:25:05;1.50;80.60
18648;DHT22;9453;50.294;18.644;2023-01-29T16:27:34;1.40;80.90
18648;DHT22;9453;50.294;18.644;2023-01-29T16:30:03;1.50;81.40
18648;DHT22;9453;50.294;18.644;2023-01-29T16:32:32;1.40;80.90
18648;DHT22;9453;50.294;18.644;2023-01-29T16:35:00;1.40;81.20
18648;DHT22;9453;50.294;18.644;2023-01-29T16:37:28;1.40;81.60
18648;DHT22;9453;50.294;18.644;2023-01-29T16:39:57;1.40;81.60
18648;DHT22;9453;50.294;18.644;2023-01-29T16:42:27;1.40;81.50
18648;DHT22;9453;50.294;18.644;2023-01-29T16:44:57;1.40;81.80
18648;DHT22;9453;50.294;18.644;2023-01-29T16:47:32;1.40;81.60
18648;DHT22;9453;50.294;18.644;2023-01-29T16:50:02;1.40;81.70
18648;DHT22;9453;50.294;18.644;2023-01-29T16:52:30;1.40;82.00
18648;DHT22;9453;50.294;18.644;2023-01-29T16:55:13;1.50;81.40
18648;DHT22;9453;50.294;18.644;2023-01-29T16:57:49;1.50;81.70
18648;DHT22;9453;50.294;18.644;2023-01-29T17:00:21;1.50;81.90
18648;DHT22;9453;50.294;18.644;2023-01-29T17:02:51;1.50;81.90
18648;DHT22;9453;50.294;18.644;2023-01-29T17:05:22;1.50;81.70
18648;DHT22;9453;50.294;18.644;2023-01-29T17:07:54;1.50;82.00
18648;DHT22;9453;50.294;18.644;2023-01-29T17:10:23;1.50;81.70
18648;DHT22;9453;50.294;18.644;2023-01-29T17:12:56;1.50;82.00
18648;DHT22;9453;50.294;18.644;2023-01-29T17:15:30;1.50;81.80
18648;DHT22;9453;50.294;18.644;2023-01-29T17:17:57;1.50;82.00
18648;DHT22;9453;50.294;18.644;2023-01-29T17:20:25;1.50;82.30
18648;DHT22;9453;50.294;18.644;2023-01-29T17:22:52;1.50;82.60
18648;DHT22;9453;50.294;18.644;2023-01-29T17:25:19;1.60;82.60
18648;DHT22;9453;50.294;18.644;2023-01-29T17:27:46;1.60;82.10
18648;DHT22;9453;50.294;18.644;2023-01-29T17:30:33;1.60;81.90
18648;DHT22;9453;50.294;18.644;2023-01-29T17:36:19;1.60;82.50
18648;DHT22;9453;50.294;18.644;2023-01-29T17:38:47;1.60;82.60
18648;DHT22;9453;50.294;18.644;2023-01-29T17:41:18;1.60;82.60
18648;DHT22;9453;50.294;18.644;2023-01-29T17:43:47;1.60;82.90
18648;DHT22;9453;50.294;18.644;2023-01-29T17:46:17;1.60;83.10
18648;DHT22;9453;50.294;18.644;2023-01-29T17:48:44;1.60;83.30
18648;DHT22;9453;50.294;18.644;2023-01-29T17:51:13;1.50;83.30
18648;DHT22;9453;50.294;18.644;2023-01-29T17:53:41;1.60;83.70
18648;DHT22;9453;50.294;18.644;2023-01-29T17:56:16;1.50;83.60
18648;DHT22;9453;50.294;18.644;2023-01-29T17:58:43;1.50;83.90
18648;DHT22;9453;50.294;18.644;2023-01-29T18:01:10;1.50;83.90
18648;DHT22;9453;50.294;18.644;2023-01-29T18:03:40;1.50;84.50
18648;DHT22;9453;50.294;18.644;2023-01-29T18:06:08;1.60;83.90
18648;DHT22;9453;50.294;18.644;2023-01-29T18:08:37;1.60;83.90
18648;DHT22;9453;50.294;18.644;2023-01-29T18:11:04;1.60;83.90
18648;DHT22;9453;50.294;18.644;2023-01-29T18:13:32;1.50;83.30
18648;DHT22;9453;50.294;18.644;2023-01-29T18:16:00;1.40;83.50
18648;DHT22;9453;50.294;18.644;2023-01-29T18:18:27;1.40;83.60
18648;DHT22;9453;50.294;18.644;2023-01-29T18:20:55;1.40;84.30
18648;DHT22;9453;50.294;18.644;2023-01-29T18:23:22;1.40;84.40
18648;DHT22;9453;50.294;18.644;2023-01-29T18:25:49;1.40;84.30
18648;DHT22;9453;50.294;18.644;2023-01-29T18:28:17;1.50;84.50
18648;DHT22;9453;50.294;18.644;2023-01-29T18:30:44;1.50;83.90
18648;DHT22;9453;50.294;18.644;2023-01-29T18:33:12;1.50;83.70
18648;DHT22;9453;50.294;18.644;2023-01-29T18:35:39;1.50;84.00
18648;DHT22;9453;50.294;18.644;2023-01-29T18:38:16;1.50;84.00
18648;DHT22;9453;50.294;18.644;2023-01-29T18:40:43;1.50;84.10
18648;DHT22;9453;50.294;18.644;2023-01-29T18:43:10;1.50;84.40
18648;DHT22;9453;50.294;18.644;2023-01-29T18:45:37;1.50;84.40
18648;DHT22;9453;50.294;18.644;2023-01-29T18:48:04;1.40;84.40
18648;DHT22;9453;50.294;18.644;2023-01-29T18:50:32;1.50;84.60
18648;DHT22;9453;50.294;18.644;2023-01-29T18:52:59;1.40;84.90
18648;DHT22;9453;50.294;18.644;2023-01-29T18:55:27;1.40;85.40
18648;DHT22;9453;50.294;18.644;2023-01-29T18:57:55;1.40;85.80
18648;DHT22;9453;50.294;18.644;2023-01-29T19:00:23;1.40;86.00
18648;DHT22;9453;50.294;18.644;2023-01-29T19:02:50;1.40;86.20
18648;DHT22;9453;50.294;18.644;2023-01-29T19:05:17;1.40;86.30
18648;DHT22;9453;50.294;18.644;2023-01-29T19:07:47;1.40;86.60
18648;DHT22;9453;50.294;18.644;2023-01-29T19:10:14;1.30;86.70
18648;DHT22;9453;50.294;18.644;2023-01-29T19:12:43;1.30;86.90
18648;DHT22;9453;50.294;18.644;2023-01-29T19:15:11;1.30;87.60
18648;DHT22;9453;50.294;18.644;2023-01-29T19:17:38;1.30;87.60
18648;DHT22;9453;50.294;18.644;2023-01-29T19:20:06;1.30;87.30
18648;DHT22;9453;50.294;18.644;2023-01-29T19:22:34;1.30;87.40
18648;DHT22;9453;50.294;18.644;2023-01-29T19:25:01;1.20;87.50
18648;DHT22;9453;50.294;18.644;2023-01-29T19:27:28;1.20;87.70
18648;DHT22;9453;50.294;18.644;2023-01-29T19:29:57;1.10;87.70
18648;DHT22;9453;50.294;18.644;2023-01-29T19:32:26;1.10;88.20
18648;DHT22;9453;50.294;18.644;2023-01-29T19:34:54;1.10;88.80
18648;DHT22;9453;50.294;18.644;2023-01-29T19:37:22;1.00;89.40
18648;DHT22;9453;50.294;18.644;2023-01-29T19:39:50;1.00;89.20
18648;DHT22;9453;50.294;18.644;2023-01-29T19:42:18;1.00;89.10
18648;DHT22;9453;50.294;18.644;2023-01-29T19:44:45;1.10;90.00
18648;DHT22;9453;50.294;18.644;2023-01-29T19:47:14;1.00;89.70
18648;DHT22;9453;50.294;18.644;2023-01-29T19:49:42;1.00;89.50
18648;DHT22;9453;50.294;18.644;2023-01-29T19:52:09;1.00;89.80
18648;DHT22;9453;50.294;18.644;2023-01-29T19:54:58;1.00;89.80
18648;DHT22;9453;50.294;18.644;2023-01-29T19:57:26;1.00;89.70
18648;DHT22;9453;50.294;18.644;2023-01-29T19:59:53;1.00;89.60
18648;DHT22;9453;50.294;18.644;2023-01-29T20:02:22;1.00;89.80
18648;DHT22;9453;50.294;18.644;2023-01-29T20:04:50;1.00;90.10
18648;DHT22;9453;50.294;18.644;2023-01-29T20:07:17;1.00;89.80
18648;DHT22;9453;50.294;18.644;2023-01-29T20:09:45;1.00;89.70
18648;DHT22;9453;50.294;18.644;2023-01-29T20:12:12;1.10;89.10
18648;DHT22;9453;50.294;18.644;2023-01-29T20:14:40;1.10;89.10
18648;DHT22;9453;50.294;18.644;2023-01-29T20:17:13;0.90;89.10
18648;DHT22;9453;50.294;18.644;2023-01-29T20:19:42;0.90;89.50
18648;DHT22;9453;50.294;18.644;2023-01-29T20:22:10;1.00;89.70
18648;DHT22;9453;50.294;18.644;2023-01-29T20:24:37;1.00;89.70
18648;DHT22;9453;50.294;18.644;2023-01-29T20:27:08;0.90;88.90
18648;DHT22;9453;50.294;18.644;2023-01-29T20:29:36;0.90;89.90
18648;DHT22;9453;50.294;18.644;2023-01-29T20:32:04;0.90;89.90
18648;DHT22;9453;50.294;18.644;2023-01-29T20:34:32;0.90;90.00
18648;DHT22;9453;50.294;18.644;2023-01-29T20:37:01;0.80;89.80
18648;DHT22;9453;50.294;18.644;2023-01-29T20:39:28;0.90;90.00
18648;DHT22;9453;50.294;18.644;2023-01-29T20:41:55;0.80;90.00
18648;DHT22;9453;50.294;18.644;2023-01-29T20:44:22;0.80;90.10
18648;DHT22;9453;50.294;18.644;2023-01-29T20:46:50;0.80;90.20
18648;DHT22;9453;50.294;18.644;2023-01-29T20:49:17;0.80;90.70
18648;DHT22;9453;50.294;18.644;2023-01-29T20:51:45;0.90;90.50
18648;DHT22;9453;50.294;18.644;2023-01-29T20:54:13;0.90;90.50
18648;DHT22;9453;50.294;18.644;2023-01-29T20:56:40;0.90;90.20
18648;DHT22;9453;50.294;18.644;2023-01-29T20:59:08;0.90;90.10
18648;DHT22;9453;50.294;18.644;2023-01-29T21:01:35;0.90;90.20
18648;DHT22;9453;50.294;18.644;2023-01-29T21:04:02;1.00;90.00
18648;DHT22;9453;50.294;18.644;2023-01-29T21:06:29;1.00;90.20
18648;DHT22;9453;50.294;18.644;2023-01-29T21:08:56;1.00;90.10
18648;DHT22;9453;50.294;18.644;2023-01-29T21:11:25;1.00;90.10
18648;DHT22;9453;50.294;18.644;2023-01-29T21:13:53;1.00;90.10
18648;DHT22;9453;50.294;18.644;2023-01-29T21:16:22;1.00;90.10